createdAt,value
2022-11-13T00:00:33.545Z,122.50
2022-11-13T00:03:20.905Z,65.07
2022-11-13T00:06:07.986Z,71.53
2022-11-13T00:08:55.722Z,70.27
2022-11-13T00:11:42.620Z,48.80
2022-11-13T00:14:31.034Z,74.07
2022-11-13T00:17:17.738Z,45.43
2022-11-13T00:20:05.651Z,65.10
2022-11-13T00:22:52.347Z,42.60
2022-11-13T00:25:39.497Z,37.90
2022-11-13T00:28:26.673Z,48.23
2022-11-13T00:31:16.513Z,80.53
2022-11-13T00:37:10.826Z,78.63
2022-11-13T00:39:59.783Z,87.97
2022-11-13T00:42:46.826Z,78.77
2022-11-13T00:45:33.854Z,78.87
2022-11-13T00:48:22.317Z,49.60
2022-11-13T00:51:09.340Z,58.60
2022-11-13T00:53:56.184Z,62.03
2022-11-13T00:56:43.647Z,81.10
2022-11-13T00:59:30.559Z,204.57
2022-11-13T01:02:20.499Z,140.00
2022-11-13T01:05:10.141Z,87.77
2022-11-13T01:07:57.410Z,64.83
2022-11-13T01:10:50.396Z,60.10
2022-11-13T01:13:40.961Z,56.50
2022-11-13T01:16:29.157Z,91.40
2022-11-13T01:19:16.686Z,65.47
2022-11-13T01:22:05.003Z,69.97
2022-11-13T01:24:52.118Z,68.83
2022-11-13T01:27:39.488Z,56.77
2022-11-13T01:30:26.177Z,69.43
2022-11-13T01:33:13.167Z,46.60
2022-11-13T01:36:04.324Z,49.13
2022-11-13T01:38:53.672Z,66.47
2022-11-13T01:41:41.220Z,95.93
2022-11-13T01:44:46.012Z,74.00
2022-11-13T01:47:32.920Z,57.97
2022-11-13T01:50:19.852Z,58.70
2022-11-13T01:53:07.647Z,46.10
2022-11-13T01:55:56.016Z,72.90
2022-11-13T01:58:45.122Z,65.10
2022-11-13T02:01:32.073Z,66.80
2022-11-13T02:04:19.598Z,53.40
2022-11-13T02:07:09.192Z,36.90
2022-11-13T02:09:58.194Z,52.00
2022-11-13T02:12:50.723Z,32.30
2022-11-13T02:15:37.759Z,72.83
2022-11-13T02:18:26.624Z,40.83
2022-11-13T02:21:30.243Z,66.63
2022-11-13T02:24:24.099Z,41.63
2022-11-13T02:27:15.899Z,42.07
2022-11-13T02:30:16.039Z,38.03
2022-11-13T02:33:03.263Z,36.37
2022-11-13T02:35:50.298Z,35.43
2022-11-13T02:38:42.038Z,44.73
2022-11-13T02:41:30.553Z,31.03
2022-11-13T02:44:17.689Z,39.87
2022-11-13T02:47:04.879Z,32.47
2022-11-13T02:49:51.865Z,36.03
2022-11-13T02:52:39.006Z,31.13
2022-11-13T02:55:26.095Z,33.73
2022-11-13T02:58:14.097Z,31.83
2022-11-13T03:01:03.574Z,31.37
2022-11-13T03:03:58.471Z,31.67
2022-11-13T03:06:45.310Z,27.23
2022-11-13T03:09:32.303Z,29.93
2022-11-13T03:12:19.000Z,30.80
2022-11-13T03:15:14.195Z,32.30
2022-11-13T03:18:04.421Z,35.63
2022-11-13T03:20:53.956Z,36.67
2022-11-13T03:23:42.053Z,51.43
2022-11-13T03:26:29.222Z,36.57
2022-11-13T03:29:16.084Z,43.47
2022-11-13T03:32:05.383Z,99.13
2022-11-13T03:34:52.158Z,41.10
2022-11-13T03:37:39.114Z,41.53
2022-11-13T03:40:26.112Z,45.30
2022-11-13T03:43:13.121Z,38.97
2022-11-13T03:46:00.059Z,44.10
2022-11-13T03:48:48.580Z,34.17
2022-11-13T03:51:35.950Z,35.43
2022-11-13T03:54:23.007Z,77.33
2022-11-13T03:57:10.023Z,46.20
2022-11-13T03:59:57.127Z,93.47
2022-11-13T04:02:44.248Z,48.50
2022-11-13T04:05:33.013Z,69.87
2022-11-13T04:08:20.213Z,60.40
2022-11-13T04:11:08.011Z,38.53
2022-11-13T04:13:54.794Z,33.00
2022-11-13T04:16:41.877Z,32.27
2022-11-13T04:19:28.883Z,47.17
2022-11-13T04:22:17.259Z,61.50
2022-11-13T04:25:04.199Z,56.27
2022-11-13T04:27:51.440Z,73.57
2022-11-13T04:30:38.511Z,45.60
2022-11-13T04:33:25.238Z,44.80
2022-11-13T04:36:12.241Z,95.97
2022-11-13T04:39:00.568Z,71.90
2022-11-13T04:42:05.040Z,37.30
2022-11-13T04:44:52.237Z,48.93
2022-11-13T04:47:39.149Z,60.20
2022-11-13T04:50:26.682Z,44.17
2022-11-13T04:53:13.671Z,123.57
2022-11-13T04:56:02.160Z,98.73
2022-11-13T04:58:48.947Z,48.67
2022-11-13T05:01:36.549Z,140.37
2022-11-13T05:04:24.188Z,204.17
2022-11-13T05:07:10.994Z,140.47
2022-11-13T05:09:57.776Z,137.30
2022-11-13T05:12:46.808Z,220.00
2022-11-13T05:15:33.536Z,230.43
2022-11-13T05:18:21.211Z,85.47
2022-11-13T05:21:09.923Z,56.93
2022-11-13T05:23:57.603Z,52.13
2022-11-13T05:26:44.612Z,94.70
2022-11-13T05:29:32.983Z,135.00
2022-11-13T05:32:19.763Z,167.33
2022-11-13T05:35:07.116Z,46.27
2022-11-13T05:37:54.300Z,114.80
2022-11-13T05:40:41.296Z,103.17
2022-11-13T05:43:28.286Z,129.93
2022-11-13T05:46:18.802Z,80.07
2022-11-13T05:49:05.836Z,85.33
2022-11-13T05:51:55.017Z,132.03
2022-11-13T05:54:41.943Z,135.67
2022-11-13T05:57:29.106Z,116.70
2022-11-13T06:00:17.390Z,47.33
2022-11-13T06:03:05.760Z,88.57
2022-11-13T06:05:52.649Z,41.57
2022-11-13T06:08:40.257Z,71.53
2022-11-13T06:11:28.836Z,103.63
2022-11-13T06:14:15.963Z,52.23
2022-11-13T06:17:02.716Z,51.63
2022-11-13T06:19:50.977Z,84.47
2022-11-13T06:22:37.641Z,93.43
2022-11-13T06:25:24.705Z,93.67
2022-11-13T06:28:11.930Z,95.27
2022-11-13T06:31:04.919Z,80.43
2022-11-13T06:33:52.176Z,192.00
2022-11-13T06:36:40.375Z,270.70
2022-11-13T06:39:27.320Z,37.67
2022-11-13T06:42:14.182Z,63.37
2022-11-13T06:45:01.099Z,48.73
2022-11-13T06:47:48.049Z,30.00
2022-11-13T06:50:35.069Z,47.90
2022-11-13T06:53:23.319Z,40.90
2022-11-13T06:56:11.561Z,58.67
2022-11-13T06:58:58.587Z,46.90
2022-11-13T07:01:45.820Z,141.50
2022-11-13T07:04:32.683Z,47.63
2022-11-13T07:07:19.692Z,60.93
2022-11-13T07:10:09.266Z,53.73
2022-11-13T07:12:59.436Z,69.80
2022-11-13T07:15:46.123Z,62.47
2022-11-13T07:18:33.725Z,112.47
2022-11-13T07:21:21.654Z,34.43
2022-11-13T07:24:11.547Z,48.80
2022-11-13T07:27:03.555Z,58.03
2022-11-13T07:29:50.239Z,37.67
2022-11-13T07:32:37.596Z,66.10
2022-11-13T07:35:24.492Z,50.23
2022-11-13T07:38:11.314Z,63.53
2022-11-13T07:40:59.765Z,52.77
2022-11-13T07:43:47.981Z,44.27
2022-11-13T07:46:35.007Z,29.93
2022-11-13T07:49:21.827Z,24.33
2022-11-13T07:52:09.296Z,22.23
2022-11-13T07:54:56.303Z,42.07
2022-11-13T07:57:43.429Z,31.97
2022-11-13T08:00:34.214Z,51.87
2022-11-13T08:03:20.918Z,18.70
2022-11-13T08:06:09.570Z,20.60
2022-11-13T08:08:56.639Z,12.70
2022-11-13T08:11:43.593Z,12.40
2022-11-13T08:14:30.544Z,11.97
2022-11-13T08:17:18.994Z,15.87
2022-11-13T08:20:11.526Z,31.63
2022-11-13T08:23:00.273Z,23.93
2022-11-13T08:25:47.168Z,16.10
2022-11-13T08:28:34.383Z,12.60
2022-11-13T08:31:21.351Z,15.90
2022-11-13T08:34:09.804Z,10.93
2022-11-13T08:36:56.487Z,10.30
2022-11-13T08:39:43.369Z,10.00
2022-11-13T08:42:30.408Z,10.60
2022-11-13T08:45:17.452Z,10.83
2022-11-13T08:48:05.698Z,9.90
2022-11-13T08:50:54.693Z,9.23
2022-11-13T08:53:41.325Z,9.27
2022-11-13T08:56:28.659Z,8.97
2022-11-13T08:59:15.952Z,8.57
2022-11-13T09:02:02.844Z,8.50
2022-11-13T09:04:49.823Z,8.57
2022-11-13T09:07:38.171Z,8.90
2022-11-13T09:10:25.572Z,11.17
2022-11-13T09:13:12.903Z,9.80
2022-11-13T09:16:00.518Z,10.50
2022-11-13T09:18:50.418Z,9.57
2022-11-13T09:21:37.277Z,9.60
2022-11-13T09:24:25.655Z,9.57
2022-11-13T09:27:13.686Z,9.10
2022-11-13T09:30:00.702Z,8.63
2022-11-13T09:32:47.741Z,9.67
2022-11-13T09:35:37.474Z,9.70
2022-11-13T09:38:24.912Z,10.23
2022-11-13T09:41:16.635Z,11.37
2022-11-13T09:44:07.163Z,11.83
2022-11-13T09:46:59.111Z,11.73
2022-11-13T09:49:48.257Z,10.87
2022-11-13T09:52:38.081Z,9.60
2022-11-13T09:55:30.020Z,9.97
2022-11-13T09:58:25.418Z,9.70
2022-11-13T10:01:18.721Z,8.43
2022-11-13T10:04:14.298Z,8.90
2022-11-13T10:07:20.081Z,8.43
2022-11-13T10:10:33.179Z,8.73
2022-11-13T10:13:25.062Z,9.50
2022-11-13T10:16:19.090Z,9.67
2022-11-13T10:19:11.753Z,8.60
2022-11-13T10:22:31.118Z,8.30
2022-11-13T10:25:17.075Z,8.67
2022-11-13T10:28:35.397Z,8.80
2022-11-13T10:31:21.772Z,9.87
2022-11-13T10:34:08.583Z,7.93
2022-11-13T10:37:25.455Z,8.00
2022-11-13T10:40:12.683Z,8.30
2022-11-13T10:43:07.452Z,8.40
2022-11-13T10:45:58.623Z,9.17
2022-11-13T10:48:46.938Z,8.73
2022-11-13T10:51:35.956Z,8.47
2022-11-13T10:54:26.077Z,9.20
2022-11-13T10:57:33.229Z,9.20
2022-11-13T11:00:23.085Z,10.40
2022-11-13T11:03:10.053Z,9.60
2022-11-13T11:05:59.942Z,9.63
2022-11-13T11:08:47.076Z,9.20
2022-11-13T11:12:03.307Z,10.80
2022-11-13T11:15:07.455Z,8.80
2022-11-13T11:17:58.641Z,8.13
2022-11-13T11:20:49.845Z,9.93
2022-11-13T11:23:49.481Z,8.25
2022-11-13T11:26:42.145Z,8.40
2022-11-13T11:29:34.423Z,8.15
2022-11-13T11:32:28.475Z,8.30
2022-11-13T11:35:20.175Z,8.40
2022-11-13T11:38:12.710Z,8.02
2022-11-13T11:41:15.006Z,8.40
2022-11-13T11:44:14.954Z,8.77
2022-11-13T11:47:01.678Z,8.60
2022-11-13T11:49:48.861Z,7.75
2022-11-13T11:52:50.790Z,8.73
2022-11-13T11:55:54.312Z,7.95
2022-11-13T11:59:10.487Z,7.28
2022-11-13T12:02:21.797Z,7.28
2022-11-13T12:05:24.265Z,7.13
2022-11-13T12:08:21.749Z,6.35
2022-11-13T12:11:15.614Z,7.97
2022-11-13T12:14:16.319Z,6.82
2022-11-13T12:17:17.545Z,5.03
2022-11-13T12:20:16.196Z,5.63
2022-11-13T12:23:16.112Z,4.38
2022-11-13T12:26:08.351Z,3.60
2022-11-13T12:29:03.992Z,5.30
2022-11-13T12:32:01.860Z,5.47
2022-11-13T12:34:52.787Z,7.45
2022-11-13T12:37:48.541Z,4.70
2022-11-13T12:40:44.475Z,5.95
2022-11-13T12:43:49.168Z,7.00
2022-11-13T12:46:38.723Z,7.15
2022-11-13T12:49:33.194Z,6.80
2022-11-13T12:52:23.985Z,4.93
2022-11-13T12:55:27.633Z,5.78
2022-11-13T12:58:22.617Z,6.53
2022-11-13T13:01:18.632Z,6.97
2022-11-13T13:04:34.768Z,5.20
2022-11-13T13:07:36.956Z,5.00
2022-11-13T13:10:33.430Z,6.10
2022-11-13T13:13:29.251Z,5.78
2022-11-13T13:16:24.822Z,5.18
2022-11-13T13:19:26.843Z,5.85
2022-11-13T13:22:27.596Z,5.75
2022-11-13T13:25:27.181Z,6.10
2022-11-13T13:28:21.375Z,6.32
2022-11-13T13:31:20.408Z,5.20
2022-11-13T13:34:23.031Z,5.97
2022-11-13T13:37:22.868Z,5.55
2022-11-13T13:40:22.399Z,5.15
2022-11-13T13:43:29.212Z,5.03
2022-11-13T13:46:18.846Z,5.13
2022-11-13T13:49:10.436Z,6.68
2022-11-13T13:51:58.508Z,5.65
2022-11-13T13:54:47.159Z,6.72
2022-11-13T13:57:34.377Z,8.00
2022-11-13T14:00:22.315Z,5.57
2022-11-13T14:03:20.558Z,5.93
2022-11-13T14:06:18.229Z,4.97
2022-11-13T14:09:12.510Z,6.43
2022-11-13T14:12:08.025Z,5.47
2022-11-13T14:14:56.382Z,5.65
2022-11-13T14:17:44.619Z,5.03
2022-11-13T14:20:42.200Z,5.65
2022-11-13T14:23:32.055Z,5.88
2022-11-13T14:26:20.916Z,6.65
2022-11-13T14:29:37.448Z,5.78
2022-11-13T14:32:26.444Z,4.90
2022-11-13T14:35:21.022Z,6.03
2022-11-13T14:38:20.080Z,7.40
2022-11-13T14:41:07.988Z,5.07
2022-11-13T14:43:55.363Z,6.63
2022-11-13T14:46:45.404Z,5.47
2022-11-13T14:49:35.177Z,6.88
2022-11-13T14:52:24.430Z,6.50
2022-11-13T14:55:22.738Z,5.32
2022-11-13T14:58:13.926Z,6.13
2022-11-13T15:01:14.347Z,6.25
2022-11-13T15:04:03.359Z,7.27
2022-11-13T15:06:50.885Z,6.63
2022-11-13T15:09:37.438Z,5.87
2022-11-13T15:12:24.588Z,7.50
2022-11-13T15:15:15.899Z,6.27
2022-11-13T15:18:03.261Z,7.50
2022-11-13T15:20:51.906Z,5.47
2022-11-13T15:23:38.874Z,8.17
2022-11-13T15:26:25.929Z,6.97
2022-11-13T15:29:12.881Z,7.40
2022-11-13T15:32:00.283Z,5.87
2022-11-13T15:34:47.053Z,7.30
2022-11-13T15:37:35.380Z,7.17
2022-11-13T15:40:22.160Z,7.97
2022-11-13T15:43:16.189Z,6.07
2022-11-13T15:46:03.886Z,6.53
2022-11-13T15:48:51.232Z,8.40
2022-11-13T15:51:41.361Z,8.00
2022-11-13T15:54:34.811Z,9.63
2022-11-13T15:57:23.219Z,8.30
2022-11-13T16:00:15.868Z,9.93
2022-11-13T16:03:04.632Z,9.60
2022-11-13T16:05:51.788Z,11.63
2022-11-13T16:08:38.826Z,9.17
2022-11-13T16:11:27.660Z,10.67
2022-11-13T16:14:14.919Z,8.63
2022-11-13T16:17:01.799Z,10.10
2022-11-13T16:19:51.102Z,11.20
2022-11-13T16:22:37.706Z,9.50
2022-11-13T16:25:25.186Z,11.40
2022-11-13T16:28:17.704Z,10.27
2022-11-13T16:31:05.290Z,11.67
2022-11-13T16:33:52.335Z,11.23
2022-11-13T16:36:39.296Z,12.53
2022-11-13T16:39:26.028Z,12.80
2022-11-13T16:42:14.266Z,12.53
2022-11-13T16:45:02.586Z,13.13
2022-11-13T16:47:50.757Z,15.60
2022-11-13T16:50:39.647Z,13.23
2022-11-13T16:53:26.920Z,14.80
2022-11-13T16:56:16.105Z,14.57
2022-11-13T16:59:02.952Z,14.63
2022-11-13T17:01:55.235Z,16.47
2022-11-13T17:04:42.523Z,15.10
2022-11-13T17:07:30.164Z,15.07
2022-11-13T17:10:34.756Z,14.07
2022-11-13T17:13:21.439Z,16.27
2022-11-13T17:16:10.124Z,16.30
2022-11-13T17:18:59.029Z,17.13
2022-11-13T17:21:45.749Z,16.23
2022-11-13T17:24:32.853Z,16.87
2022-11-13T17:27:19.925Z,16.83
2022-11-13T17:30:08.181Z,18.87
2022-11-13T17:32:56.650Z,18.93
2022-11-13T17:35:46.379Z,18.30
2022-11-13T17:38:34.739Z,18.07
2022-11-13T17:41:22.288Z,19.27
2022-11-13T17:44:09.422Z,18.13
2022-11-13T17:47:00.271Z,19.30
2022-11-13T17:49:47.570Z,18.07
2022-11-13T17:52:36.142Z,19.63
2022-11-13T17:55:23.469Z,19.33
2022-11-13T17:58:10.118Z,21.70
2022-11-13T18:01:05.905Z,20.23
2022-11-13T18:03:56.129Z,21.30
2022-11-13T18:06:42.788Z,21.03
2022-11-13T18:09:31.618Z,23.60
2022-11-13T18:12:18.383Z,23.83
2022-11-13T18:15:05.793Z,23.53
2022-11-13T18:17:52.818Z,24.93
2022-11-13T18:20:42.236Z,23.27
2022-11-13T18:23:30.495Z,23.17
2022-11-13T18:26:20.593Z,25.80
2022-11-13T18:29:10.230Z,25.30
2022-11-13T18:31:56.893Z,24.93
2022-11-13T18:34:44.072Z,25.27
2022-11-13T18:37:31.335Z,25.17
2022-11-13T18:40:18.406Z,28.70
2022-11-13T18:43:07.341Z,27.10
2022-11-13T18:45:57.767Z,27.03
2022-11-13T18:48:45.814Z,25.43
2022-11-13T18:51:35.481Z,26.60
2022-11-13T18:54:29.052Z,28.50
2022-11-13T18:57:16.990Z,27.80
2022-11-13T19:00:05.988Z,30.37
2022-11-13T19:02:52.687Z,27.93
2022-11-13T19:05:46.939Z,30.90
2022-11-13T19:08:40.382Z,29.87
2022-11-13T19:11:29.195Z,30.50
2022-11-13T19:14:17.997Z,30.43
2022-11-13T19:17:06.067Z,30.47
2022-11-13T19:19:55.428Z,30.87
2022-11-13T19:22:42.405Z,35.43
2022-11-13T19:25:29.422Z,40.90
2022-11-13T19:28:16.366Z,40.67
2022-11-13T19:31:08.033Z,36.17
2022-11-13T19:33:59.937Z,34.00
2022-11-13T19:36:49.483Z,34.67
2022-11-13T19:39:36.687Z,37.70
2022-11-13T19:42:23.523Z,36.10
2022-11-13T19:45:11.140Z,36.67
2022-11-13T19:47:57.982Z,37.07
2022-11-13T19:50:47.386Z,37.90
2022-11-13T19:53:33.967Z,34.50
2022-11-13T19:56:22.394Z,40.83
2022-11-13T19:59:11.256Z,37.40
2022-11-13T20:01:58.203Z,37.70
2022-11-13T20:04:45.260Z,39.30
2022-11-13T20:07:37.327Z,45.03
2022-11-13T20:10:24.076Z,39.57
2022-11-13T20:13:11.386Z,39.47
2022-11-13T20:15:58.000Z,40.00
2022-11-13T20:18:45.585Z,40.43
2022-11-13T20:21:32.671Z,38.97
2022-11-13T20:24:20.804Z,38.50
2022-11-13T20:27:07.720Z,40.00
2022-11-13T20:29:54.830Z,39.77
2022-11-13T20:32:42.179Z,38.60
2022-11-13T20:35:28.804Z,39.13
2022-11-13T20:38:16.026Z,39.90
2022-11-13T20:41:06.759Z,39.37
2022-11-13T20:43:55.860Z,39.00
2022-11-13T20:46:43.203Z,45.03
2022-11-13T20:49:29.751Z,41.03
2022-11-13T20:52:16.739Z,39.87
2022-11-13T20:55:03.931Z,37.17
2022-11-13T20:57:52.238Z,43.00
2022-11-13T21:00:38.900Z,41.10
2022-11-13T21:03:25.767Z,41.17
2022-11-13T21:06:15.151Z,41.17
2022-11-13T21:09:03.538Z,42.37
2022-11-13T21:11:50.344Z,45.27
2022-11-13T21:14:38.705Z,51.27
2022-11-13T21:17:25.385Z,47.63
2022-11-13T21:20:13.098Z,49.00
2022-11-13T21:23:00.025Z,48.00
2022-11-13T21:25:47.597Z,43.53
2022-11-13T21:28:34.985Z,42.77
2022-11-13T21:31:23.277Z,43.10
2022-11-13T21:34:11.048Z,46.37
2022-11-13T21:36:58.009Z,48.80
2022-11-13T21:39:46.406Z,49.00
2022-11-13T21:42:33.894Z,43.87
2022-11-13T21:45:20.901Z,45.33
2022-11-13T21:48:09.033Z,43.47
2022-11-13T21:50:55.760Z,49.63
2022-11-13T21:53:43.448Z,45.50
2022-11-13T21:56:35.950Z,40.77
2022-11-13T21:59:23.117Z,45.77
2022-11-13T22:02:11.945Z,47.30
2022-11-13T22:05:00.187Z,43.93
2022-11-13T22:07:47.229Z,50.10
2022-11-13T22:10:34.094Z,50.13
2022-11-13T22:13:20.932Z,50.17
2022-11-13T22:16:09.560Z,43.93
2022-11-13T22:18:57.428Z,47.73
2022-11-13T22:21:46.842Z,45.57
2022-11-13T22:24:33.573Z,43.37
2022-11-13T22:27:20.534Z,47.20
2022-11-13T22:30:08.731Z,43.83
2022-11-13T22:32:55.360Z,50.70
2022-11-13T22:35:42.806Z,44.43
2022-11-13T22:38:32.059Z,48.50
2022-11-13T22:41:23.623Z,47.70
2022-11-13T22:44:14.340Z,45.40
2022-11-13T22:47:01.015Z,48.43
2022-11-13T22:49:47.964Z,45.87
2022-11-13T22:52:34.920Z,44.40
2022-11-13T22:55:23.244Z,45.43
2022-11-13T22:58:09.840Z,46.03
2022-11-13T23:00:56.829Z,42.23
2022-11-13T23:03:46.464Z,42.50
2022-11-13T23:06:34.741Z,41.80
2022-11-13T23:09:22.364Z,42.97
2022-11-13T23:12:10.512Z,40.17
2022-11-13T23:14:57.455Z,47.03
2022-11-13T23:17:46.108Z,44.03
2022-11-13T23:20:32.787Z,44.33
2022-11-13T23:23:19.900Z,44.13
2022-11-13T23:26:08.812Z,46.17
2022-11-13T23:28:58.054Z,47.00
2022-11-13T23:31:44.754Z,48.00
2022-11-13T23:34:58.002Z,42.93
2022-11-13T23:37:39.083Z,43.90
2022-11-13T23:40:26.221Z,42.00
2022-11-13T23:43:13.388Z,39.07
2022-11-13T23:46:02.105Z,43.80
2022-11-13T23:48:49.469Z,42.63
2022-11-13T23:51:36.181Z,45.50
2022-11-13T23:54:23.218Z,42.23
2022-11-13T23:57:10.311Z,40.43
2022-11-13T23:59:57.262Z,40.40
